Tuesday, February 20, 2018, 3:29 PM GMT
Back to Local

CYQY, Sydney, N. S.

Location: , , Canada Lat: 46.167
Local Time: 3:29 PM GMT (15:29 GMT) Lon: -60.05
Time Zone: GMT Elev: 183 ft

Show me the last for .
Show Decoded

2018-02-20 15:00 METAR CYQY 201500Z 32003KT 9SM SCT039 OVC073 04/03 A3028 RMK NS3AS5 SLP258 =
2018-02-20 14:06 METAR CYQY 201406Z 28004KT 7SM -DZ OVC043 02/02 A3029 RMK NS8 SLP262 =
2018-02-20 14:00 METAR CYQY 201400Z 27004KT 10SM OVC040 02/02 A3029 RMK NS8 SLP262 =
2018-02-20 13:27 METAR CYQY 201327Z 26006KT 10SM OVC039 02/01 A3029 RMK NS8 SLP263 =
2018-02-20 13:00 METAR CYQY 201300Z 27004KT 7SM -DZ OVC037 01/01 A3030 RMK NS8 SLP264 =
2018-02-20 12:00 METAR CYQY 201200Z 20003KT 7SM -DZ SCT004 OVC039 01/01 A3029 RMK ST4NS4 SLP262 =
2018-02-20 11:13 METAR CYQY 201113Z 20002KT 7SM -DZ OVC004 00/00 A3030 RMK ST8 SLP265 =
2018-02-20 11:00 METAR CYQY 201100Z 20002KT 7SM +DZ OVC006 00/00 A3030 RMK ST8 SLP265 =
2018-02-20 10:36 METAR CYQY 201036Z 21002KT 7SM -DZ OVC006 00/00 A3030 RMK ST8 SLP265 =
2018-02-20 10:00 METAR CYQY 201000Z 20003KT 7SM -RA OVC007 00/00 A3030 RMK NS8 SLP267 =
2018-02-20 09:00 METAR CYQY 200900Z 19005KT 7SM -RA OVC008 00/00 A3032 RMK NS8 SLP272 =
2018-02-20 08:18 METAR CYQY 200818Z 20004KT 7SM OVC005 00/M00 A3034 RMK NS8 SLP277 =
2018-02-20 08:00 METAR CYQY 200800Z 21005KT 7SM OVC004 00/M00 A3034 RMK NS8 SLP278 =
2018-02-20 07:28 METAR CYQY 200728Z 19006KT 3SM -SN SCT004 OVC019 M00/M01 A3034 RMK NS3SC5 PRESFR
                 SLP277 =
2018-02-20 07:00 METAR CYQY 200700Z 20007KT 3SM -SN OVC021 M00/M01 A3036 RMK SC8 SLP284 =
2018-02-20 06:23 METAR CYQY 200623Z 20011KT 5SM -SN OVC025 M00/M02 A3038 RMK SC8 SLP291 =
2018-02-20 06:00 METAR CYQY 200600Z 21008KT 15SM OVC027 M01/M03 A3038 RMK SC8 SLP293 =
2018-02-20 05:00 METAR CYQY 200500Z 22009KT 15SM BKN044 M01/M03 A3039 RMK SC7 SLP295 =
2018-02-20 04:00 METAR CYQY 200400Z 23010G16KT 15SM SCT031 BKN240 M01/M04 A3042 RMK SC3CI2 SLP305
                 =
2018-02-20 03:00 METAR CYQY 200300Z 22007KT 15SM SCT240 M02/M04 A3042 RMK CI3 SLP306 =
2018-02-20 02:00 METAR CYQY 200200Z 22011KT 15SM SCT240 M02/M04 A3043 RMK CI3 SLP311 =
2018-02-20 01:00 METAR CYQY 200100Z 22010G17KT 15SM SCT240 M02/M04 A3045 RMK CI3 SLP317 =
2018-02-20 00:00 METAR CYQY 200000Z 21009G15KT 15SM FEW240 M02/M04 A3046 RMK CI2 SLP320 =
2018-02-19 23:00 METAR CYQY 192300Z 21009KT 15SM SCT240 M02/M05 A3048 RMK CI3 SLP327 =
2018-02-19 22:00 METAR CYQY 192200Z 20009KT 15SM SCT240 M02/M06 A3047 RMK CI3 SLP325 =
2018-02-19 21:00 METAR CYQY 192100Z 20009G15KT 15SM SCT240 01/M06 A3048 RMK CI3 SLP327 =
2018-02-19 20:00 METAR CYQY 192000Z 20008KT 160V260 15SM FEW240 SCT250 03/M06 A3049 RMK CI2CC2
                 SLP332 =
2018-02-19 19:00 METAR CYQY 191900Z 24012KT 15SM FEW240 SCT250 03/M08 A3051 RMK CI2CC1 SLP336 =
2018-02-19 18:00 METAR CYQY 191800Z 21003KT 170V260 15SM SCT250 03/M07 A3052 RMK CI3 SLP340 =
2018-02-19 17:00 METAR CYQY 191700Z 26007KT 240V300 15SM SCT250 02/M08 A3056 RMK CS3 SLP353 =

Support USWX by starting your Amazon purchase here.